createdAt,value
2019-03-30T00:01:43.581Z,28.54
2019-03-30T00:04:18.085Z,27.83
2019-03-30T00:06:52.519Z,28.62
2019-03-30T00:09:27.014Z,28.54
2019-03-30T00:12:02.119Z,28.58
2019-03-30T00:14:36.752Z,29.07
2019-03-30T00:17:12.584Z,29.11
2019-03-30T00:19:47.845Z,29.07
2019-03-30T00:22:22.383Z,29.67
2019-03-30T00:24:57.508Z,30.14
2019-03-30T00:27:33.649Z,30.83
2019-03-30T00:30:12.283Z,31.51
2019-03-30T00:32:47.172Z,31.74
2019-03-30T00:35:21.897Z,31.50
2019-03-30T00:37:56.925Z,31.39
2019-03-30T00:40:33.706Z,31.39
2019-03-30T00:43:07.826Z,31.56
2019-03-30T00:45:43.864Z,30.76
2019-03-30T00:48:19.900Z,30.52
2019-03-30T00:50:56.285Z,30.88
2019-03-30T00:53:35.385Z,30.48
2019-03-30T00:56:10.960Z,29.67
2019-03-30T00:58:47.268Z,29.67
2019-03-30T01:01:24.350Z,29.28
2019-03-30T01:04:01.708Z,29.51
2019-03-30T01:06:37.440Z,29.21
2019-03-30T01:09:15.065Z,29.31
2019-03-30T01:11:52.765Z,29.19
2019-03-30T01:14:28.662Z,29.07
2019-03-30T01:17:07.847Z,28.80
2019-03-30T01:19:43.452Z,28.28
2019-03-30T01:22:19.626Z,27.32
2019-03-30T01:25:01.118Z,27.77
2019-03-30T01:27:39.858Z,27.65
2019-03-30T01:30:22.926Z,27.49
2019-03-30T01:32:55.430Z,26.89
2019-03-30T01:35:30.341Z,26.52
2019-03-30T01:38:06.313Z,26.20
2019-03-30T01:40:40.807Z,26.32
2019-03-30T01:43:17.095Z,25.95
2019-03-30T01:45:51.959Z,25.39
2019-03-30T01:48:26.660Z,25.53
2019-03-30T01:51:01.445Z,25.52
2019-03-30T01:53:37.102Z,25.39
2019-03-30T01:56:12.092Z,25.33
2019-03-30T01:58:49.382Z,25.15
2019-03-30T02:01:24.302Z,25.21
2019-03-30T02:03:58.580Z,25.16
2019-03-30T02:06:33.863Z,25.00
2019-03-30T02:09:10.107Z,25.24
2019-03-30T02:11:44.285Z,25.08
2019-03-30T02:14:26.758Z,24.68
2019-03-30T02:17:01.292Z,24.87
2019-03-30T02:19:35.422Z,24.16
2019-03-30T02:22:11.216Z,24.39
2019-03-30T02:24:45.355Z,23.90
2019-03-30T02:32:33.164Z,22.72
2019-03-30T02:37:49.634Z,22.13
2019-03-30T02:40:25.131Z,21.42
2019-03-30T02:42:59.224Z,20.12
2019-03-30T02:45:33.399Z,19.89
2019-03-30T02:48:07.854Z,19.79
2019-03-30T02:50:50.163Z,20.02
2019-03-30T02:53:17.630Z,20.06
2019-03-30T02:55:52.228Z,20.54
2019-03-30T02:58:26.717Z,20.48
2019-03-30T03:01:03.232Z,19.86
2019-03-30T03:03:39.434Z,20.14
2019-03-30T03:06:16.179Z,20.14
2019-03-30T03:08:52.381Z,20.42
2019-03-30T03:11:27.195Z,20.09
2019-03-30T03:14:02.366Z,21.19
2019-03-30T03:19:14.019Z,23.32
2019-03-30T03:24:20.008Z,22.98
2019-03-30T03:26:54.732Z,23.55
2019-03-30T03:29:28.773Z,23.68
2019-03-30T03:32:03.385Z,24.68
2019-03-30T03:34:37.917Z,24.73
2019-03-30T03:37:13.780Z,24.41
2019-03-30T03:39:47.911Z,24.99
2019-03-30T03:42:23.451Z,24.27
2019-03-30T03:44:57.678Z,24.71
2019-03-30T03:47:35.175Z,24.75
2019-03-30T03:50:11.955Z,23.89
2019-03-30T03:52:47.536Z,24.35
2019-03-30T03:55:21.869Z,24.86
2019-03-30T03:57:56.952Z,24.75
2019-03-30T04:00:34.049Z,24.31
2019-03-30T04:03:11.161Z,23.41
2019-03-30T04:05:47.622Z,23.27
2019-03-30T04:08:22.303Z,22.89
2019-03-30T04:10:59.007Z,22.25
2019-03-30T04:13:33.937Z,21.96
2019-03-30T04:16:09.175Z,21.57
2019-03-30T04:18:47.698Z,21.21
2019-03-30T04:21:21.108Z,22.15
2019-03-30T04:24:15.114Z,22.72
2019-03-30T04:26:49.782Z,23.59
2019-03-30T04:29:24.025Z,23.95
2019-03-30T04:31:58.731Z,23.47
2019-03-30T04:34:33.773Z,23.10
2019-03-30T04:37:08.443Z,22.33
2019-03-30T04:39:44.097Z,22.53
2019-03-30T04:42:19.001Z,21.33
2019-03-30T04:44:55.198Z,21.59
2019-03-30T04:47:32.378Z,21.18
2019-03-30T04:50:10.047Z,22.08
2019-03-30T04:52:45.623Z,23.54
2019-03-30T04:55:20.350Z,22.38
2019-03-30T04:57:57.761Z,22.71
2019-03-30T05:00:30.634Z,22.21
2019-03-30T05:03:07.893Z,22.99
2019-03-30T05:05:43.232Z,21.72
2019-03-30T05:08:19.410Z,21.47
2019-03-30T05:10:53.950Z,21.80
2019-03-30T05:13:28.727Z,21.07
2019-03-30T05:16:04.089Z,20.80
2019-03-30T05:18:38.804Z,20.28
2019-03-30T05:21:14.298Z,20.30
2019-03-30T05:23:49.160Z,20.34
2019-03-30T05:26:23.777Z,20.99
2019-03-30T05:28:58.555Z,21.55
2019-03-30T05:31:32.739Z,21.45
2019-03-30T05:34:07.432Z,21.28
2019-03-30T05:36:43.593Z,22.48
2019-03-30T05:39:18.176Z,21.97
2019-03-30T05:41:54.134Z,21.75
2019-03-30T05:44:28.687Z,21.35
2019-03-30T05:47:03.320Z,21.33
2019-03-30T05:49:40.033Z,20.72
2019-03-30T05:52:26.424Z,21.27
2019-03-30T05:54:58.897Z,21.04
2019-03-30T05:57:38.604Z,21.50
2019-03-30T06:00:14.082Z,21.78
2019-03-30T06:02:50.998Z,21.53
2019-03-30T06:05:26.643Z,21.47
2019-03-30T06:08:01.248Z,21.65
2019-03-30T06:10:38.980Z,22.00
2019-03-30T06:13:13.395Z,21.37
2019-03-30T06:15:47.716Z,21.73
2019-03-30T06:18:21.595Z,21.19
2019-03-30T06:20:56.829Z,21.88
2019-03-30T06:23:33.118Z,21.68
2019-03-30T06:26:08.689Z,21.92
2019-03-30T06:28:43.885Z,22.00
2019-03-30T06:31:18.810Z,21.85
2019-03-30T06:34:05.835Z,21.18
2019-03-30T06:36:41.135Z,21.78
2019-03-30T06:39:16.884Z,21.75
2019-03-30T06:41:51.121Z,21.64
2019-03-30T06:44:25.806Z,21.41
2019-03-30T06:47:03.360Z,21.63
2019-03-30T06:49:39.755Z,21.78
2019-03-30T06:52:14.982Z,21.53
2019-03-30T06:54:49.435Z,21.87
2019-03-30T06:57:24.255Z,21.32
2019-03-30T06:59:58.741Z,21.09
2019-03-30T07:02:33.754Z,21.55
2019-03-30T07:05:09.721Z,20.71
2019-03-30T07:07:46.937Z,21.14
2019-03-30T07:10:21.214Z,20.80
2019-03-30T07:12:58.999Z,20.53
2019-03-30T07:15:33.986Z,20.75
2019-03-30T07:18:09.294Z,20.55
2019-03-30T07:20:43.873Z,20.26
2019-03-30T07:23:17.888Z,20.75
2019-03-30T07:25:55.725Z,21.06
2019-03-30T07:28:29.947Z,21.14
2019-03-30T07:31:05.129Z,20.99
2019-03-30T07:33:40.218Z,20.59
2019-03-30T07:36:14.679Z,20.64
2019-03-30T07:38:49.192Z,20.92
2019-03-30T07:41:29.157Z,21.12
2019-03-30T07:44:03.868Z,21.23
2019-03-30T07:46:38.270Z,20.38
2019-03-30T07:49:12.953Z,19.90
2019-03-30T07:51:47.925Z,19.92
2019-03-30T07:54:22.906Z,19.81
2019-03-30T07:57:05.011Z,20.02
2019-03-30T07:59:37.256Z,19.95
2019-03-30T08:02:11.866Z,20.06
2019-03-30T08:04:48.262Z,20.24
2019-03-30T08:07:23.533Z,21.07
2019-03-30T08:09:58.735Z,20.85
2019-03-30T08:12:36.428Z,20.94
2019-03-30T08:15:12.295Z,20.92
2019-03-30T08:17:47.373Z,21.36
2019-03-30T08:20:25.527Z,22.08
2019-03-30T08:23:06.663Z,23.51
2019-03-30T08:25:54.394Z,24.75
2019-03-30T08:28:30.300Z,25.93
2019-03-30T08:31:06.493Z,26.33
2019-03-30T08:33:41.896Z,27.05
2019-03-30T08:36:20.913Z,26.68
2019-03-30T08:38:57.304Z,26.61
2019-03-30T08:41:33.035Z,26.92
2019-03-30T08:44:14.445Z,26.80
2019-03-30T08:46:51.255Z,27.46
2019-03-30T08:49:26.660Z,27.66
2019-03-30T08:52:06.090Z,27.94
2019-03-30T08:57:43.968Z,28.53
2019-03-30T09:00:21.964Z,28.22
2019-03-30T09:02:54.790Z,27.53
2019-03-30T09:05:45.775Z,27.67
2019-03-30T09:11:18.259Z,28.09
2019-03-30T09:13:53.959Z,27.93
2019-03-30T09:16:30.082Z,27.62
2019-03-30T09:19:04.490Z,27.70
2019-03-30T09:21:41.254Z,28.00
2019-03-30T09:24:16.680Z,28.05
2019-03-30T09:26:55.196Z,27.56
2019-03-30T09:29:31.056Z,28.06
2019-03-30T09:32:14.155Z,27.74
2019-03-30T09:34:45.028Z,27.62
2019-03-30T09:37:24.942Z,27.86
2019-03-30T09:40:00.375Z,28.36
2019-03-30T09:42:35.591Z,28.59
2019-03-30T09:45:14.149Z,28.42
2019-03-30T09:47:50.186Z,29.02
2019-03-30T09:50:26.800Z,29.07
2019-03-30T09:53:06.880Z,29.60
2019-03-30T09:55:42.220Z,28.86
2019-03-30T09:58:21.105Z,29.30
2019-03-30T10:00:55.417Z,29.48
2019-03-30T10:03:31.092Z,30.36
2019-03-30T10:06:10.733Z,29.65
2019-03-30T10:08:46.699Z,30.16
2019-03-30T10:11:21.567Z,30.44
2019-03-30T10:13:56.405Z,30.62
2019-03-30T10:16:32.095Z,30.21
2019-03-30T10:19:06.727Z,30.27
2019-03-30T10:21:41.427Z,31.23
2019-03-30T10:24:17.095Z,31.03
2019-03-30T10:26:53.043Z,31.46
2019-03-30T10:29:31.084Z,31.25
2019-03-30T10:32:04.697Z,30.42
2019-03-30T10:34:41.703Z,30.57
2019-03-30T10:37:17.282Z,31.52
2019-03-30T10:39:54.668Z,31.00
2019-03-30T10:42:36.085Z,31.46
2019-03-30T10:45:17.961Z,32.35
2019-03-30T10:47:55.469Z,32.01
2019-03-30T10:50:32.630Z,31.74
2019-03-30T10:53:09.582Z,31.52
2019-03-30T10:55:44.810Z,31.70
2019-03-30T10:58:25.937Z,31.68
2019-03-30T11:01:01.458Z,31.67
2019-03-30T11:03:37.048Z,32.12
2019-03-30T11:06:14.937Z,31.90
2019-03-30T11:08:52.725Z,32.10
2019-03-30T11:11:32.239Z,33.13
2019-03-30T11:14:07.669Z,32.39
2019-03-30T11:16:42.529Z,33.31
2019-03-30T11:19:17.529Z,32.85
2019-03-30T11:21:53.639Z,32.58
2019-03-30T11:24:29.243Z,32.88
2019-03-30T11:27:05.897Z,32.78
2019-03-30T11:29:41.947Z,32.99
2019-03-30T11:32:20.136Z,32.61
2019-03-30T11:34:56.360Z,32.27
2019-03-30T11:37:31.616Z,32.57
2019-03-30T11:40:09.335Z,32.04
2019-03-30T11:42:44.313Z,32.10
2019-03-30T11:45:20.253Z,31.89
2019-03-30T11:47:55.081Z,31.81
2019-03-30T11:50:32.282Z,31.77
2019-03-30T11:53:07.267Z,31.90
2019-03-30T11:55:43.488Z,32.09
2019-03-30T11:58:19.125Z,32.17
2019-03-30T12:00:55.547Z,32.14
2019-03-30T12:03:31.134Z,31.45
2019-03-30T12:06:06.729Z,31.45
2019-03-30T12:08:43.959Z,31.04
2019-03-30T12:11:30.124Z,31.28
2019-03-30T12:14:07.215Z,31.17
2019-03-30T12:16:42.432Z,30.83
2019-03-30T12:19:18.760Z,30.60
2019-03-30T12:21:54.926Z,30.43
2019-03-30T12:24:32.285Z,30.55
2019-03-30T12:27:07.491Z,30.15
2019-03-30T12:29:44.555Z,30.17
2019-03-30T12:32:18.199Z,29.72
2019-03-30T12:34:52.995Z,29.43
2019-03-30T12:37:27.670Z,29.50
2019-03-30T12:40:03.061Z,28.48
2019-03-30T12:42:37.548Z,28.09
2019-03-30T12:45:12.475Z,28.79
2019-03-30T12:47:52.302Z,28.62
2019-03-30T12:50:27.068Z,27.83
2019-03-30T12:53:02.914Z,27.42
2019-03-30T12:58:15.372Z,27.91
2019-03-30T13:00:50.313Z,27.92
2019-03-30T13:03:25.289Z,27.90
2019-03-30T13:06:02.429Z,28.10
2019-03-30T13:08:37.862Z,28.76
2019-03-30T13:11:14.619Z,28.57
2019-03-30T13:13:49.472Z,29.05
2019-03-30T13:16:31.520Z,28.17
2019-03-30T13:19:07.721Z,27.84
2019-03-30T13:21:52.670Z,27.39
2019-03-30T13:24:22.809Z,27.50
2019-03-30T13:26:58.136Z,27.86
2019-03-30T13:29:32.731Z,28.36
2019-03-30T13:32:07.917Z,28.53
2019-03-30T13:34:42.126Z,28.33
2019-03-30T13:37:25.739Z,28.18
2019-03-30T13:40:00.642Z,28.30
2019-03-30T13:42:35.094Z,28.76
2019-03-30T13:45:11.236Z,28.89
2019-03-30T13:47:45.630Z,28.82
2019-03-30T13:50:19.541Z,28.90
2019-03-30T13:52:53.437Z,28.81
2019-03-30T13:55:28.790Z,29.03
2019-03-30T13:58:04.667Z,29.15
2019-03-30T14:00:40.959Z,29.03
2019-03-30T14:03:15.183Z,29.25
2019-03-30T14:05:51.196Z,29.77
2019-03-30T14:08:27.400Z,29.65
2019-03-30T14:11:03.213Z,30.59
2019-03-30T14:13:38.578Z,30.76
2019-03-30T14:16:12.842Z,31.64
2019-03-30T14:18:46.989Z,31.52
2019-03-30T14:21:21.584Z,31.07
2019-03-30T14:23:58.663Z,31.21
2019-03-30T14:26:34.507Z,30.94
2019-03-30T14:29:09.927Z,31.48
2019-03-30T14:31:44.015Z,32.52
2019-03-30T14:34:18.333Z,33.70
2019-03-30T14:36:52.701Z,33.78
2019-03-30T14:39:28.296Z,33.73
2019-03-30T14:42:02.118Z,33.80
2019-03-30T14:44:36.069Z,34.15
2019-03-30T14:47:23.313Z,33.77
2019-03-30T14:49:58.265Z,34.35
2019-03-30T14:52:35.326Z,32.36
2019-03-30T14:55:11.371Z,32.39
2019-03-30T14:57:45.385Z,32.39
2019-03-30T15:00:20.105Z,32.46
2019-03-30T15:02:55.939Z,32.49
2019-03-30T15:05:30.139Z,30.57
2019-03-30T15:08:04.350Z,29.96
2019-03-30T15:10:38.495Z,29.37
2019-03-30T15:13:13.419Z,29.81
2019-03-30T15:15:47.503Z,30.27
2019-03-30T15:18:22.071Z,31.76
2019-03-30T15:20:55.869Z,32.11
2019-03-30T15:23:29.858Z,32.83
2019-03-30T15:26:03.817Z,33.26
2019-03-30T15:28:38.890Z,32.79
2019-03-30T15:31:12.766Z,32.49
2019-03-30T15:33:46.960Z,32.20
2019-03-30T15:36:20.483Z,32.24
2019-03-30T15:38:57.711Z,32.35
2019-03-30T15:41:29.410Z,31.27
2019-03-30T15:44:06.268Z,31.03
2019-03-30T15:46:40.393Z,31.03
2019-03-30T15:49:14.438Z,31.06
2019-03-30T15:51:49.955Z,31.31
2019-03-30T15:54:30.281Z,32.43
2019-03-30T15:57:13.934Z,31.87
2019-03-30T15:59:39.304Z,31.10
2019-03-30T16:02:14.542Z,30.74
2019-03-30T16:04:52.458Z,31.06
2019-03-30T16:07:26.645Z,30.21
2019-03-30T16:10:01.394Z,30.19
2019-03-30T16:12:35.986Z,30.06
2019-03-30T16:15:11.057Z,30.36
2019-03-30T16:17:45.003Z,29.99
2019-03-30T16:20:19.352Z,29.80
2019-03-30T16:22:53.447Z,28.46
2019-03-30T16:25:27.368Z,28.67
2019-03-30T16:28:01.621Z,27.91
2019-03-30T16:30:35.507Z,28.88
2019-03-30T16:33:09.079Z,28.43
2019-03-30T16:35:42.777Z,27.49
2019-03-30T16:38:16.743Z,28.63
2019-03-30T16:40:52.135Z,27.06
2019-03-30T16:43:26.228Z,27.39
2019-03-30T16:46:00.004Z,27.99
2019-03-30T16:48:33.801Z,27.71
2019-03-30T16:51:07.661Z,27.74
2019-03-30T16:53:41.297Z,27.38
2019-03-30T16:56:16.786Z,27.37
2019-03-30T16:58:50.461Z,27.67
2019-03-30T17:01:24.204Z,27.60
2019-03-30T17:03:59.367Z,27.50
2019-03-30T17:06:33.189Z,27.44
2019-03-30T17:09:08.239Z,27.26
2019-03-30T17:11:43.821Z,27.88
2019-03-30T17:14:18.065Z,27.56
2019-03-30T17:16:51.900Z,27.59
2019-03-30T17:19:25.784Z,27.74
2019-03-30T17:22:00.865Z,27.72
2019-03-30T17:24:34.712Z,28.15
2019-03-30T17:27:08.625Z,27.68
2019-03-30T17:29:43.049Z,27.56
2019-03-30T17:32:17.246Z,28.25
2019-03-30T17:34:51.759Z,28.19
2019-03-30T17:37:26.132Z,28.12
2019-03-30T17:40:00.348Z,28.06
2019-03-30T17:42:38.332Z,28.06
2019-03-30T17:45:11.517Z,28.79
2019-03-30T17:47:48.272Z,28.68
2019-03-30T17:50:21.972Z,28.13
2019-03-30T17:52:58.076Z,27.81
2019-03-30T17:55:33.853Z,28.01
2019-03-30T17:58:13.464Z,27.90
2019-03-30T18:00:42.865Z,27.84
2019-03-30T18:03:16.376Z,28.06
2019-03-30T18:05:51.489Z,27.95
2019-03-30T18:08:25.112Z,27.92
2019-03-30T18:10:58.990Z,28.35
2019-03-30T18:13:32.539Z,28.66
2019-03-30T18:16:06.522Z,28.63
2019-03-30T18:18:40.622Z,28.68
2019-03-30T18:21:14.503Z,28.42
2019-03-30T18:23:48.972Z,28.35
2019-03-30T18:26:22.899Z,28.42
2019-03-30T18:28:56.767Z,28.29
2019-03-30T18:31:30.447Z,28.33
2019-03-30T18:34:04.247Z,28.93
2019-03-30T18:36:41.459Z,29.34
2019-03-30T18:39:16.394Z,29.22
2019-03-30T18:41:49.830Z,28.89
2019-03-30T18:44:23.822Z,29.15
2019-03-30T18:46:57.686Z,28.96
2019-03-30T18:49:31.455Z,29.41
2019-03-30T18:52:06.351Z,29.79
2019-03-30T18:54:40.638Z,29.54
2019-03-30T18:57:15.057Z,29.64
2019-03-30T18:59:49.570Z,29.86
2019-03-30T19:02:23.638Z,29.77
2019-03-30T19:04:59.236Z,29.77
2019-03-30T19:07:32.717Z,30.30
2019-03-30T19:10:07.838Z,29.76
2019-03-30T19:12:42.211Z,30.00
2019-03-30T19:15:16.397Z,30.24
2019-03-30T19:17:50.337Z,30.00
2019-03-30T19:20:24.007Z,30.57
2019-03-30T19:22:59.158Z,30.71
2019-03-30T19:25:32.821Z,30.20
2019-03-30T19:28:06.551Z,30.73
2019-03-30T19:30:42.430Z,30.74
2019-03-30T19:33:16.124Z,30.83
2019-03-30T19:35:49.928Z,30.76
2019-03-30T19:38:24.828Z,31.07
2019-03-30T19:40:58.868Z,32.46
2019-03-30T19:43:32.970Z,32.80
2019-03-30T19:46:06.768Z,32.74
2019-03-30T19:48:40.471Z,32.29
2019-03-30T19:51:14.063Z,31.85
2019-03-30T19:53:47.825Z,32.56
2019-03-30T19:56:21.106Z,32.27
2019-03-30T19:59:09.771Z,32.74
2019-03-30T20:01:32.150Z,32.83
2019-03-30T20:04:07.793Z,33.35
2019-03-30T20:06:40.937Z,33.13
2019-03-30T20:09:14.522Z,34.89
2019-03-30T20:11:49.809Z,34.83
2019-03-30T20:14:23.471Z,34.39
2019-03-30T20:16:57.437Z,35.81
2019-03-30T20:19:32.466Z,34.56
2019-03-30T20:22:06.359Z,36.08
2019-03-30T20:24:40.784Z,35.82
2019-03-30T20:27:14.333Z,35.50
2019-03-30T20:29:48.442Z,35.77
2019-03-30T20:32:22.205Z,35.03
2019-03-30T20:34:55.885Z,35.71
2019-03-30T20:37:31.103Z,35.27
2019-03-30T20:40:10.385Z,34.62
2019-03-30T20:42:44.431Z,35.63
2019-03-30T20:45:19.193Z,36.05
2019-03-30T20:47:53.885Z,35.37
2019-03-30T20:50:27.570Z,36.24
2019-03-30T20:53:02.370Z,35.54
2019-03-30T20:55:35.927Z,36.24
2019-03-30T20:58:11.143Z,36.95
2019-03-30T21:00:44.702Z,36.25
2019-03-30T21:03:17.956Z,36.88
2019-03-30T21:05:51.561Z,36.68
2019-03-30T21:08:26.412Z,36.49
2019-03-30T21:10:59.913Z,36.50
2019-03-30T21:13:33.365Z,37.74
2019-03-30T21:16:07.069Z,37.74
2019-03-30T21:18:42.272Z,37.23
2019-03-30T21:21:16.862Z,38.63
2019-03-30T21:23:50.660Z,37.70
2019-03-30T21:26:24.425Z,37.97
2019-03-30T21:28:58.355Z,37.70
2019-03-30T21:31:31.779Z,38.42
2019-03-30T21:34:05.679Z,38.29
2019-03-30T21:36:39.541Z,38.18
2019-03-30T21:39:13.545Z,38.32
2019-03-30T21:41:47.040Z,38.21
2019-03-30T21:44:22.319Z,38.29
2019-03-30T21:46:56.334Z,37.92
2019-03-30T21:49:31.134Z,38.57
2019-03-30T21:52:04.925Z,38.97
2019-03-30T21:54:38.740Z,38.70
2019-03-30T21:57:12.457Z,39.03
2019-03-30T21:59:47.263Z,38.99
2019-03-30T22:02:21.241Z,39.08
2019-03-30T22:04:54.910Z,39.48
2019-03-30T22:07:28.959Z,38.76
2019-03-30T22:10:03.467Z,38.51
2019-03-30T22:12:37.413Z,38.62
2019-03-30T22:15:12.111Z,39.07
2019-03-30T22:17:45.636Z,39.27
2019-03-30T22:20:21.265Z,38.44
2019-03-30T22:22:53.742Z,38.26
2019-03-30T22:25:28.506Z,38.60
2019-03-30T22:28:02.259Z,37.28
2019-03-30T22:30:35.833Z,36.50
2019-03-30T22:33:09.606Z,36.37
2019-03-30T22:35:43.348Z,35.41
2019-03-30T22:38:17.226Z,36.38
2019-03-30T22:40:50.881Z,34.90
2019-03-30T22:43:24.380Z,36.40
2019-03-30T22:45:58.647Z,34.67
2019-03-30T22:48:32.662Z,36.04
2019-03-30T22:51:06.572Z,33.76
2019-03-30T22:53:40.053Z,32.71
2019-03-30T22:56:13.466Z,33.92
2019-03-30T22:58:47.671Z,32.36
2019-03-30T23:01:21.087Z,30.31
2019-03-30T23:03:54.945Z,29.46
2019-03-30T23:06:28.474Z,29.61
2019-03-30T23:09:01.972Z,30.11
2019-03-30T23:11:36.969Z,29.53
2019-03-30T23:14:18.360Z,28.84
2019-03-30T23:16:52.121Z,28.94
2019-03-30T23:19:25.874Z,28.58
2019-03-30T23:21:59.840Z,28.94
2019-03-30T23:24:33.527Z,28.61
2019-03-30T23:27:07.366Z,28.59
2019-03-30T23:29:41.011Z,27.70
2019-03-30T23:32:14.641Z,28.68
2019-03-30T23:34:48.578Z,27.01
2019-03-30T23:37:22.230Z,28.24
2019-03-30T23:39:56.869Z,27.56
2019-03-30T23:42:30.356Z,27.98
2019-03-30T23:45:04.337Z,28.09
2019-03-30T23:47:39.186Z,27.64
2019-03-30T23:50:13.254Z,27.59
2019-03-30T23:52:48.411Z,28.07
2019-03-30T23:55:22.520Z,27.87
2019-03-30T23:57:57.572Z,27.40
